Time;durP1;ratioP1;P1;durP2;ratioP2;P2;SDS_P1;SDS_P2;PMS_P1;PMS_P2;Temp;Humidity;BMP_temperature;BMP_pressure;BME280_temperature;BME280_humidity;BME280_pressure;Samples;Min_cycle;Max_cycle;Signal;HPM_P1;HPM_P2
2023/09/23 00:01:29;;;;;;;1.05;0.55;;;;;;;;;;5097642;28;20382;-82
2023/09/23 00:03:55;;;;;;;1.90;0.90;;;;;;;;;;5097350;28;20810;-81
2023/09/23 00:06:21;;;;;;;1.42;0.70;;;;;;;;;;5096629;28;20869;-81
2023/09/23 00:08:48;;;;;;;1.27;0.88;;;;;;;;;;5097457;28;20496;-81
2023/09/23 00:11:14;;;;;;;0.77;0.70;;;;;;;;;;5096758;28;20386;-81
2023/09/23 00:13:40;;;;;;;1.02;0.70;;;;;;;;;;5095173;28;20781;-81
2023/09/23 00:16:11;;;;;;;1.63;0.70;;;;;;;;;;5096442;28;20417;-81
2023/09/23 00:18:38;;;;;;;0.80;0.50;;;;;;;;;;5096477;28;20439;-81
2023/09/23 00:21:05;;;;;;;1.20;0.80;;;;;;;;;;5101396;28;20381;-81
2023/09/23 00:23:33;;;;;;;0.75;0.50;;;;;;;;;;5096507;28;20390;-81
2023/09/23 00:26:01;;;;;;;2.22;0.88;;;;;;;;;;5096690;28;20378;-81
2023/09/23 00:28:28;;;;;;;0.63;0.60;;;;;;;;;;5099383;28;20410;-81
2023/09/23 00:30:54;;;;;;;2.08;0.68;;;;;;;;;;5077340;28;20405;-81
2023/09/23 00:33:20;;;;;;;1.52;0.60;;;;;;;;;;5096393;28;20732;-81
2023/09/23 00:35:47;;;;;;;2.67;0.80;;;;;;;;;;5099132;28;20370;-81
2023/09/23 00:38:13;;;;;;;1.70;0.70;;;;;;;;;;5097565;28;20370;-81
2023/09/23 00:40:39;;;;;;;1.25;0.70;;;;;;;;;;5096384;28;20770;-81
2023/09/23 00:43:06;;;;;;;3.33;0.80;;;;;;;;;;5096040;28;20402;-81
2023/09/23 00:45:33;;;;;;;1.50;0.80;;;;;;;;;;5108554;28;20377;-81
2023/09/23 00:48:00;;;;;;;1.27;0.70;;;;;;;;;;5097877;28;20374;-81
2023/09/23 00:50:26;;;;;;;1.23;0.73;;;;;;;;;;5095775;28;20407;-81
2023/09/23 00:52:53;;;;;;;1.63;0.70;;;;;;;;;;5095003;28;20429;-80
2023/09/23 00:55:20;;;;;;;2.38;0.80;;;;;;;;;;5095415;28;20443;-81
2023/09/23 00:57:47;;;;;;;1.90;0.70;;;;;;;;;;5094151;28;20378;-81
2023/09/23 01:00:13;;;;;;;1.40;0.73;;;;;;;;;;5094499;28;20443;-81
2023/09/23 01:02:40;;;;;;;1.33;0.70;;;;;;;;;;5094577;28;20382;-81
2023/09/23 01:05:08;;;;;;;0.87;0.50;;;;;;;;;;5094689;28;20451;-81
2023/09/23 01:07:35;;;;;;;1.65;0.65;;;;;;;;;;5095353;28;20439;-81
2023/09/23 01:10:02;;;;;;;1.27;0.60;;;;;;;;;;5094769;28;20409;-81
2023/09/23 01:12:28;;;;;;;1.00;0.60;;;;;;;;;;5094436;28;20378;-81
2023/09/23 01:14:59;;;;;;;0.90;0.70;;;;;;;;;;5095047;28;20385;-81
2023/09/23 01:17:26;;;;;;;1.40;0.90;;;;;;;;;;5094582;28;20374;-81
2023/09/23 01:19:52;;;;;;;0.70;0.50;;;;;;;;;;5094089;28;20371;-81
2023/09/23 01:22:27;;;;;;;1.25;0.80;;;;;;;;;;5103458;28;20380;-81
2023/09/23 01:24:53;;;;;;;0.80;0.45;;;;;;;;;;5095902;28;20378;-81
2023/09/23 01:27:19;;;;;;;1.90;0.50;;;;;;;;;;5097871;28;20381;-82
2023/09/23 01:29:52;;;;;;;2.50;0.60;;;;;;;;;;5097622;28;20752;-81
2023/09/23 01:32:35;;;;;;;1.20;0.60;;;;;;;;;;5097752;28;20911;-81
2023/09/23 01:35:05;;;;;;;1.65;0.50;;;;;;;;;;5096937;28;20378;-81
2023/09/23 01:37:31;;;;;;;0.85;0.40;;;;;;;;;;5097549;28;20413;-81
2023/09/23 01:39:58;;;;;;;0.90;0.40;;;;;;;;;;5097513;28;20390;-81
2023/09/23 01:42:24;;;;;;;1.27;0.68;;;;;;;;;;5097299;28;20413;-81
2023/09/23 01:44:50;;;;;;;1.00;0.60;;;;;;;;;;5083046;28;20459;-81
2023/09/23 01:47:17;;;;;;;2.55;0.80;;;;;;;;;;5097500;28;20762;-81
2023/09/23 01:49:43;;;;;;;1.40;0.50;;;;;;;;;;5097319;28;20642;-81
2023/09/23 01:52:09;;;;;;;1.42;0.60;;;;;;;;;;5090803;28;20444;-81
2023/09/23 01:54:36;;;;;;;0.52;0.50;;;;;;;;;;5096960;28;20724;-81
2023/09/23 01:57:02;;;;;;;2.00;0.70;;;;;;;;;;5097452;28;20781;-81
2023/09/23 01:59:28;;;;;;;0.82;0.63;;;;;;;;;;5098089;28;20408;-81
2023/09/23 02:01:54;;;;;;;1.20;0.60;;;;;;;;;;5096460;28;20386;-81
2023/09/23 02:04:20;;;;;;;0.90;0.60;;;;;;;;;;5097451;28;20382;-81
2023/09/23 02:06:46;;;;;;;1.03;0.60;;;;;;;;;;5098185;28;20719;-81
2023/09/23 02:09:12;;;;;;;1.23;0.60;;;;;;;;;;5097445;28;20755;-81
2023/09/23 02:11:39;;;;;;;0.98;0.60;;;;;;;;;;5098487;28;20387;-81
2023/09/23 02:14:05;;;;;;;2.22;0.70;;;;;;;;;;5097398;28;20390;-81
2023/09/23 02:16:31;;;;;;;0.60;0.60;;;;;;;;;;5097859;28;20847;-81
2023/09/23 02:18:57;;;;;;;2.33;0.80;;;;;;;;;;5097596;28;20386;-81
2023/09/23 02:21:26;;;;;;;1.25;0.60;;;;;;;;;;5098025;28;20481;-81
2023/09/23 02:23:55;;;;;;;1.60;0.60;;;;;;;;;;5102157;28;20397;-81
2023/09/23 02:26:22;;;;;;;2.00;0.60;;;;;;;;;;5111410;28;20370;-81
2023/09/23 02:28:48;;;;;;;1.73;0.80;;;;;;;;;;5098275;28;20443;-81
2023/09/23 02:31:15;;;;;;;1.50;0.80;;;;;;;;;;5097606;28;20380;-81
2023/09/23 02:33:43;;;;;;;1.42;0.80;;;;;;;;;;5100389;28;20378;-81
2023/09/23 02:36:14;;;;;;;2.35;0.85;;;;;;;;;;5096799;28;20381;-81
2023/09/23 02:38:42;;;;;;;2.20;1.10;;;;;;;;;;5098311;28;20915;-81
2023/09/23 02:41:08;;;;;;;1.60;1.10;;;;;;;;;;5097977;28;20412;-81
2023/09/23 02:43:34;;;;;;;1.08;0.80;;;;;;;;;;5097744;28;20390;-81
2023/09/23 02:46:00;;;;;;;1.10;0.85;;;;;;;;;;5097719;28;20393;-81
2023/09/23 02:48:27;;;;;;;2.38;0.88;;;;;;;;;;5096816;28;21296;-81
2023/09/23 02:50:53;;;;;;;0.95;0.70;;;;;;;;;;5097756;28;20695;-81
2023/09/23 02:53:19;;;;;;;1.60;0.85;;;;;;;;;;5097166;28;20450;-81
2023/09/23 02:55:51;;;;;;;1.08;0.70;;;;;;;;;;5097123;28;20367;-81
2023/09/23 02:58:22;;;;;;;1.15;0.70;;;;;;;;;;5097304;28;20382;-81
2023/09/23 03:00:57;;;;;;;1.15;0.80;;;;;;;;;;5097732;28;20375;-81
2023/09/23 03:03:23;;;;;;;2.30;0.85;;;;;;;;;;5096936;28;20409;-81
2023/09/23 03:05:55;;;;;;;1.50;1.00;;;;;;;;;;5097534;28;20397;-82
2023/09/23 03:08:22;;;;;;;1.90;0.90;;;;;;;;;;5097734;28;20501;-81
2023/09/23 03:10:51;;;;;;;0.98;0.88;;;;;;;;;;5096684;28;20386;-81
2023/09/23 03:13:18;;;;;;;2.10;1.08;;;;;;;;;;5096751;28;20419;-81
2023/09/23 03:15:48;;;;;;;1.40;0.95;;;;;;;;;;5096843;28;20748;-81
2023/09/23 03:18:14;;;;;;;1.67;1.00;;;;;;;;;;5096934;28;20882;-81
2023/09/23 03:20:40;;;;;;;1.15;0.90;;;;;;;;;;5096704;28;20378;-81
2023/09/23 03:23:09;;;;;;;1.20;0.80;;;;;;;;;;5097144;28;20444;-81
2023/09/23 03:25:42;;;;;;;1.70;1.10;;;;;;;;;;5096308;28;20385;-81
2023/09/23 03:28:08;;;;;;;1.92;1.10;;;;;;;;;;5096532;28;20420;-81
2023/09/23 03:30:35;;;;;;;2.42;0.95;;;;;;;;;;5095971;28;20374;-81
2023/09/23 03:33:02;;;;;;;3.00;1.30;;;;;;;;;;5110457;28;21145;-81
2023/09/23 03:35:30;;;;;;;2.47;0.90;;;;;;;;;;5096438;28;20396;-81
2023/09/23 03:37:56;;;;;;;1.17;0.90;;;;;;;;;;5095722;28;20370;-81
2023/09/23 03:40:25;;;;;;;2.10;1.20;;;;;;;;;;5096453;28;20374;-81
2023/09/23 03:42:51;;;;;;;1.27;1.05;;;;;;;;;;5095630;28;20377;-81
2023/09/23 03:45:17;;;;;;;1.03;0.73;;;;;;;;;;5096565;28;20374;-81
2023/09/23 03:47:44;;;;;;;1.20;0.75;;;;;;;;;;5096697;28;20386;-81
2023/09/23 03:50:10;;;;;;;0.98;0.80;;;;;;;;;;5085629;28;20418;-81
2023/09/23 03:52:36;;;;;;;1.73;1.00;;;;;;;;;;5083239;28;20395;-81
2023/09/23 03:55:03;;;;;;;0.88;0.77;;;;;;;;;;5093885;28;20434;-81
2023/09/23 03:57:29;;;;;;;3.17;0.98;;;;;;;;;;5098423;28;20386;-81
2023/09/23 03:59:55;;;;;;;1.10;0.73;;;;;;;;;;5104831;28;20390;-81
2023/09/23 04:02:24;;;;;;;1.52;0.70;;;;;;;;;;5097478;28;20390;-82
2023/09/23 04:04:53;;;;;;;1.73;0.80;;;;;;;;;;5096111;28;20467;-82
2023/09/23 04:07:19;;;;;;;1.20;0.87;;;;;;;;;;5097058;28;20404;-81
2023/09/23 04:09:45;;;;;;;1.05;0.70;;;;;;;;;;5096458;28;20878;-81
2023/09/23 04:12:12;;;;;;;1.40;1.00;;;;;;;;;;5096392;28;20380;-81
2023/09/23 04:14:38;;;;;;;0.98;0.80;;;;;;;;;;5078793;28;20442;-82
2023/09/23 04:17:04;;;;;;;1.40;0.90;;;;;;;;;;5096256;28;20422;-81
2023/09/23 04:19:30;;;;;;;1.10;0.70;;;;;;;;;;5095606;28;20378;-81
2023/09/23 04:21:56;;;;;;;2.28;1.00;;;;;;;;;;5096856;28;20410;-82
2023/09/23 04:24:22;;;;;;;0.95;0.85;;;;;;;;;;5104989;28;20396;-82
2023/09/23 04:26:49;;;;;;;2.43;0.90;;;;;;;;;;5105518;28;20382;-81
2023/09/23 04:29:15;;;;;;;1.70;0.80;;;;;;;;;;5100393;28;20408;-82
2023/09/23 04:31:41;;;;;;;1.55;0.77;;;;;;;;;;5107576;28;20466;-82
2023/09/23 04:34:07;;;;;;;1.08;0.90;;;;;;;;;;5096150;28;20382;-82
2023/09/23 04:36:33;;;;;;;1.80;0.70;;;;;;;;;;5099153;28;20378;-81
2023/09/23 04:38:59;;;;;;;1.17;0.60;;;;;;;;;;5095880;28;20393;-81
2023/09/23 04:41:25;;;;;;;0.90;0.70;;;;;;;;;;5095587;28;20421;-81
2023/09/23 04:43:51;;;;;;;0.95;0.70;;;;;;;;;;5095342;28;20378;-81
2023/09/23 04:46:17;;;;;;;2.00;0.88;;;;;;;;;;5095589;28;20848;-81
2023/09/23 04:48:43;;;;;;;1.17;0.73;;;;;;;;;;5095467;28;20496;-81
2023/09/23 04:51:09;;;;;;;1.58;0.98;;;;;;;;;;5095292;28;20397;-81
2023/09/23 04:53:35;;;;;;;1.30;0.80;;;;;;;;;;5095010;28;20378;-81
2023/09/23 04:56:10;;;;;;;1.27;0.90;;;;;;;;;;5096301;28;20382;-81
2023/09/23 04:58:36;;;;;;;1.90;0.90;;;;;;;;;;5082516;28;20767;-81
2023/09/23 05:01:03;;;;;;;1.15;0.88;;;;;;;;;;5099223;28;20707;-81
2023/09/23 05:03:30;;;;;;;2.30;0.70;;;;;;;;;;5098919;28;20731;-81
2023/09/23 05:05:56;;;;;;;0.97;0.87;;;;;;;;;;5098977;28;20366;-81
2023/09/23 05:08:22;;;;;;;1.10;0.88;;;;;;;;;;5098907;28;20435;-81
2023/09/23 05:10:49;;;;;;;1.30;0.80;;;;;;;;;;5098662;28;20370;-81
2023/09/23 05:13:17;;;;;;;1.10;0.70;;;;;;;;;;5099191;28;20839;-81
2023/09/23 05:15:43;;;;;;;1.75;1.00;;;;;;;;;;5098747;28;20847;-82
2023/09/23 05:18:09;;;;;;;1.00;0.90;;;;;;;;;;5099907;28;20397;-81
2023/09/23 05:20:36;;;;;;;1.10;0.90;;;;;;;;;;5098597;28;20389;-81
2023/09/23 05:23:05;;;;;;;2.20;1.00;;;;;;;;;;5098289;28;20594;-81
2023/09/23 05:25:31;;;;;;;1.10;0.93;;;;;;;;;;5097354;28;20385;-80
2023/09/23 05:27:57;;;;;;;1.08;0.80;;;;;;;;;;5097327;28;20435;-81
2023/09/23 05:30:27;;;;;;;2.47;1.10;;;;;;;;;;5105119;28;20376;-80
2023/09/23 05:32:53;;;;;;;0.93;0.80;;;;;;;;;;5096923;28;20378;-80
2023/09/23 05:35:19;;;;;;;1.10;0.93;;;;;;;;;;5097568;28;20385;-80
2023/09/23 05:37:47;;;;;;;2.72;0.73;;;;;;;;;;5097723;28;20382;-80
2023/09/23 05:42:45;;;;;;;1.40;0.90;;;;;;;;;;5096863;28;20374;-80
2023/09/23 05:45:11;;;;;;;1.60;0.90;;;;;;;;;;5096570;28;20390;-80
2023/09/23 05:47:37;;;;;;;1.58;1.00;;;;;;;;;;5096825;28;20382;-80
2023/09/23 05:50:04;;;;;;;1.40;0.93;;;;;;;;;;5097269;28;20405;-80
2023/09/23 05:52:30;;;;;;;4.35;1.17;;;;;;;;;;5097232;28;20382;-81
2023/09/23 05:54:56;;;;;;;1.25;1.00;;;;;;;;;;5097084;28;20434;-80
2023/09/23 05:57:22;;;;;;;2.55;1.17;;;;;;;;;;5097089;28;20765;-81
2023/09/23 05:59:48;;;;;;;3.28;1.30;;;;;;;;;;5096274;28;20370;-81
2023/09/23 06:02:14;;;;;;;1.15;1.08;;;;;;;;;;5097110;28;20731;-80
2023/09/23 06:04:40;;;;;;;1.55;0.88;;;;;;;;;;5096604;28;20390;-80
2023/09/23 06:07:06;;;;;;;2.60;0.95;;;;;;;;;;5096939;28;20470;-81
2023/09/23 06:09:32;;;;;;;1.40;1.10;;;;;;;;;;5097194;28;20457;-81
2023/09/23 06:11:58;;;;;;;2.15;0.90;;;;;;;;;;5095378;28;20827;-81
2023/09/23 06:14:25;;;;;;;2.15;0.90;;;;;;;;;;5095036;28;20390;-81
2023/09/23 06:16:51;;;;;;;1.95;1.10;;;;;;;;;;5098977;28;20736;-81
2023/09/23 06:19:17;;;;;;;1.83;0.95;;;;;;;;;;5097444;28;20390;-81
2023/09/23 06:21:43;;;;;;;2.50;0.80;;;;;;;;;;5097635;28;20374;-81
2023/09/23 06:24:10;;;;;;;1.50;0.80;;;;;;;;;;5100074;28;20755;-81
2023/09/23 06:26:37;;;;;;;1.75;0.95;;;;;;;;;;5100844;28;20413;-81
2023/09/23 06:29:04;;;;;;;0.93;0.82;;;;;;;;;;5097006;28;20410;-81
2023/09/23 06:31:30;;;;;;;0.98;0.80;;;;;;;;;;5096706;28;20374;-81
2023/09/23 06:33:56;;;;;;;0.80;0.80;;;;;;;;;;5099104;28;20409;-80
2023/09/23 06:36:22;;;;;;;1.33;1.05;;;;;;;;;;5096552;28;20465;-81
2023/09/23 06:38:48;;;;;;;1.90;0.90;;;;;;;;;;5079850;28;21237;-80
2023/09/23 06:41:14;;;;;;;1.10;0.93;;;;;;;;;;5097084;28;20401;-80
2023/09/23 06:43:40;;;;;;;1.90;1.60;;;;;;;;;;5087694;28;20390;-80
2023/09/23 06:46:07;;;;;;;1.13;1.00;;;;;;;;;;5090481;28;20398;-81
2023/09/23 06:48:33;;;;;;;1.20;1.00;;;;;;;;;;5097995;28;20437;-81
2023/09/23 06:50:59;;;;;;;3.00;1.10;;;;;;;;;;5079895;28;20397;-81
2023/09/23 06:53:25;;;;;;;1.20;0.90;;;;;;;;;;5097754;28;20460;-81
2023/09/23 06:55:51;;;;;;;1.50;0.88;;;;;;;;;;5097852;28;20450;-81
2023/09/23 06:58:18;;;;;;;1.83;1.13;;;;;;;;;;5097844;28;20393;-81
2023/09/23 07:00:43;;;;;;;1.48;0.98;;;;;;;;;;5098027;28;21198;-81
2023/09/23 07:03:09;;;;;;;2.00;1.08;;;;;;;;;;5096775;28;20382;-81
2023/09/23 07:05:36;;;;;;;1.88;0.90;;;;;;;;;;5094759;28;20400;-80
2023/09/23 07:08:02;;;;;;;1.20;0.90;;;;;;;;;;5081629;28;20432;-81
2023/09/23 07:10:28;;;;;;;1.40;0.90;;;;;;;;;;5085535;28;20462;-80
2023/09/23 07:12:54;;;;;;;0.80;0.80;;;;;;;;;;5088882;28;20386;-80
2023/09/23 07:15:20;;;;;;;1.30;0.90;;;;;;;;;;5091100;28;20816;-80
2023/09/23 07:17:46;;;;;;;1.00;0.75;;;;;;;;;;5094780;28;20374;-81
2023/09/23 07:20:12;;;;;;;0.95;0.90;;;;;;;;;;5096104;28;20386;-80
2023/09/23 07:22:38;;;;;;;1.67;1.10;;;;;;;;;;5095702;28;20511;-81
2023/09/23 07:25:05;;;;;;;1.17;0.82;;;;;;;;;;5096133;28;20410;-80
2023/09/23 07:27:31;;;;;;;1.00;0.88;;;;;;;;;;5093224;28;20881;-80
2023/09/23 07:29:57;;;;;;;2.07;0.80;;;;;;;;;;5092206;28;20449;-81
2023/09/23 07:32:23;;;;;;;1.65;0.80;;;;;;;;;;5088365;28;20376;-81
2023/09/23 07:34:49;;;;;;;1.27;0.90;;;;;;;;;;5090939;28;20911;-81
2023/09/23 07:37:15;;;;;;;2.28;1.10;;;;;;;;;;5094256;28;20393;-81
2023/09/23 07:39:44;;;;;;;1.57;0.87;;;;;;;;;;5099656;28;20386;-81
2023/09/23 07:42:10;;;;;;;2.28;0.90;;;;;;;;;;5095513;28;20775;-81
2023/09/23 07:44:36;;;;;;;1.60;0.80;;;;;;;;;;5100891;28;20410;-81
2023/09/23 07:47:02;;;;;;;0.80;0.80;;;;;;;;;;5099644;28;20462;-81
2023/09/23 07:49:28;;;;;;;1.17;1.00;;;;;;;;;;5106504;28;20408;-80
2023/09/23 07:51:56;;;;;;;2.60;0.90;;;;;;;;;;5097081;28;20390;-81
2023/09/23 07:54:22;;;;;;;0.80;0.80;;;;;;;;;;5096752;28;20390;-78
2023/09/23 07:56:48;;;;;;;1.35;0.80;;;;;;;;;;5098892;28;20390;-79
2023/09/23 07:59:14;;;;;;;1.17;0.80;;;;;;;;;;5107337;28;20401;-79
2023/09/23 08:01:40;;;;;;;2.50;0.88;;;;;;;;;;5100200;28;20935;-82
2023/09/23 08:04:06;;;;;;;0.80;0.80;;;;;;;;;;5100116;28;20385;-80
2023/09/23 08:06:32;;;;;;;2.10;0.90;;;;;;;;;;5099930;28;20397;-79
2023/09/23 08:08:58;;;;;;;1.75;1.08;;;;;;;;;;5098940;28;20950;-79
2023/09/23 08:11:24;;;;;;;1.30;1.10;;;;;;;;;;5099705;28;20382;-80
2023/09/23 08:13:50;;;;;;;1.27;0.80;;;;;;;;;;5099294;28;20386;-80
2023/09/23 08:16:16;;;;;;;1.90;1.20;;;;;;;;;;5100162;28;20381;-79
2023/09/23 08:18:42;;;;;;;1.50;1.08;;;;;;;;;;5098595;28;20716;-79
2023/09/23 08:21:08;;;;;;;1.27;0.68;;;;;;;;;;5096183;28;20389;-79
2023/09/23 08:23:34;;;;;;;0.80;0.75;;;;;;;;;;5097460;28;20778;-81
2023/09/23 08:26:00;;;;;;;2.10;1.00;;;;;;;;;;5078503;28;20385;-79
2023/09/23 08:28:26;;;;;;;1.40;0.93;;;;;;;;;;5098594;28;20970;-80
2023/09/23 08:30:52;;;;;;;1.20;1.00;;;;;;;;;;5098167;28;20394;-80
2023/09/23 08:33:18;;;;;;;2.70;1.10;;;;;;;;;;5090526;28;20393;-82
2023/09/23 08:35:48;;;;;;;1.27;0.90;;;;;;;;;;5106849;28;20382;-81
2023/09/23 08:38:14;;;;;;;1.83;0.90;;;;;;;;;;5104079;28;20763;-82
2023/09/23 08:40:42;;;;;;;1.58;0.93;;;;;;;;;;5105046;28;20732;-82
2023/09/23 08:43:08;;;;;;;1.40;1.15;;;;;;;;;;5103716;28;20384;-82
2023/09/23 08:45:37;;;;;;;1.73;0.90;;;;;;;;;;5104667;28;20421;-82
2023/09/23 08:48:03;;;;;;;2.00;1.00;;;;;;;;;;5105243;28;20388;-84
2023/09/23 08:50:30;;;;;;;1.43;1.00;;;;;;;;;;5090628;28;20412;-82
2023/09/23 08:52:57;;;;;;;1.63;1.10;;;;;;;;;;5087526;28;20387;-82
2023/09/23 08:55:24;;;;;;;1.48;1.10;;;;;;;;;;5104132;28;20843;-82
2023/09/23 08:57:50;;;;;;;2.10;1.10;;;;;;;;;;5104448;28;20410;-82
2023/09/23 09:00:18;;;;;;;1.63;1.20;;;;;;;;;;5104217;28;20386;-82
2023/09/23 09:02:44;;;;;;;2.28;1.25;;;;;;;;;;5104689;28;20504;-82
2023/09/23 09:05:10;;;;;;;1.40;1.00;;;;;;;;;;5104776;28;20402;-82
2023/09/23 09:07:36;;;;;;;1.30;1.20;;;;;;;;;;5104346;28;20441;-82
2023/09/23 09:10:03;;;;;;;1.77;1.17;;;;;;;;;;5104602;28;20433;-82
2023/09/23 09:12:29;;;;;;;1.27;1.17;;;;;;;;;;5104019;28;20886;-82
2023/09/23 09:14:55;;;;;;;1.35;1.00;;;;;;;;;;5103578;28;20390;-82
2023/09/23 09:17:21;;;;;;;1.90;1.10;;;;;;;;;;5085706;28;20393;-82
2023/09/23 09:19:49;;;;;;;1.75;1.25;;;;;;;;;;5085384;28;20389;-81
2023/09/23 09:22:16;;;;;;;1.05;0.95;;;;;;;;;;5103505;28;20374;-81
2023/09/23 09:24:42;;;;;;;1.47;1.10;;;;;;;;;;5103376;28;20411;-81
2023/09/23 09:27:12;;;;;;;1.20;1.10;;;;;;;;;;5104155;28;20461;-84
2023/09/23 09:29:40;;;;;;;1.42;1.00;;;;;;;;;;5098097;28;20420;-81
2023/09/23 09:32:09;;;;;;;0.90;0.90;;;;;;;;;;5093163;28;20384;-82
2023/09/23 09:34:45;;;;;;;1.50;0.93;;;;;;;;;;5082927;28;20469;-82
2023/09/23 09:37:13;;;;;;;1.10;1.00;;;;;;;;;;5096568;28;20391;-82
2023/09/23 09:39:43;;;;;;;1.13;0.85;;;;;;;;;;5101430;28;20416;-82
2023/09/23 09:42:12;;;;;;;1.20;1.00;;;;;;;;;;5103082;28;20390;-82
2023/09/23 09:44:41;;;;;;;2.25;1.00;;;;;;;;;;5101534;28;20377;-83
2023/09/23 09:47:08;;;;;;;1.70;1.15;;;;;;;;;;5100374;28;20382;-84
2023/09/23 09:49:36;;;;;;;1.48;1.10;;;;;;;;;;5096414;28;20417;-81
2023/09/23 09:52:04;;;;;;;2.35;1.00;;;;;;;;;;5097223;28;20761;-82
2023/09/23 09:54:31;;;;;;;2.60;1.10;;;;;;;;;;5097200;28;20382;-82
2023/09/23 09:56:59;;;;;;;1.02;0.90;;;;;;;;;;5100050;28;20378;-81
2023/09/23 09:59:30;;;;;;;1.42;1.08;;;;;;;;;;5100187;28;20855;-82
2023/09/23 10:01:56;;;;;;;1.92;0.90;;;;;;;;;;5080393;28;20382;-82
2023/09/23 10:04:23;;;;;;;1.23;1.10;;;;;;;;;;5103442;28;20404;-82
2023/09/23 10:06:56;;;;;;;1.90;1.00;;;;;;;;;;5102164;28;20381;-83
2023/09/23 10:09:29;;;;;;;1.70;1.00;;;;;;;;;;5101642;28;20497;-83
2023/09/23 10:11:56;;;;;;;1.17;0.90;;;;;;;;;;5082783;28;20386;-83
2023/09/23 10:14:22;;;;;;;1.92;1.00;;;;;;;;;;5096066;28;20378;-82
2023/09/23 10:16:52;;;;;;;1.83;1.05;;;;;;;;;;5104368;28;20418;-83
2023/09/23 10:19:38;;;;;;;1.67;0.90;;;;;;;;;;5105941;28;20386;-83
2023/09/23 10:22:18;;;;;;;0.90;0.75;;;;;;;;;;5107218;28;20425;-82
2023/09/23 10:24:44;;;;;;;1.00;0.70;;;;;;;;;;5106295;28;20438;-82
2023/09/23 10:27:10;;;;;;;1.13;0.60;;;;;;;;;;5098606;28;20423;-82
2023/09/23 10:29:45;;;;;;;1.83;0.80;;;;;;;;;;5101930;28;20435;-82
2023/09/23 10:32:14;;;;;;;1.40;0.57;;;;;;;;;;5106217;28;20375;-82
2023/09/23 10:34:49;;;;;;;0.90;0.70;;;;;;;;;;5105229;28;20925;-82
2023/09/23 10:37:45;;;;;;;0.85;0.60;;;;;;;;;;5110935;28;20839;-83
2023/09/23 10:40:14;;;;;;;2.03;0.53;;;;;;;;;;5084338;28;20396;-83
2023/09/23 10:42:44;;;;;;;2.60;0.70;;;;;;;;;;5104397;28;20389;-83
2023/09/23 10:45:11;;;;;;;0.93;0.73;;;;;;;;;;5104130;28;20393;-83
2023/09/23 10:47:38;;;;;;;1.30;0.80;;;;;;;;;;5104213;28;20386;-83
2023/09/23 10:50:07;;;;;;;1.00;0.70;;;;;;;;;;5094117;28;20444;-83
2023/09/23 10:52:33;;;;;;;1.13;0.65;;;;;;;;;;5092020;28;20394;-82
2023/09/23 10:54:59;;;;;;;1.40;0.50;;;;;;;;;;5116492;28;20398;-83
2023/09/23 10:57:27;;;;;;;1.33;0.80;;;;;;;;;;5101535;28;20515;-83
2023/09/23 10:59:53;;;;;;;1.92;0.70;;;;;;;;;;5102180;28;20409;-83
2023/09/23 11:02:20;;;;;;;1.95;0.80;;;;;;;;;;5104012;28;20382;-83
2023/09/23 11:04:49;;;;;;;1.15;0.60;;;;;;;;;;5100647;28;20382;-84
2023/09/23 11:07:16;;;;;;;1.60;0.68;;;;;;;;;;5101493;28;20397;-84
2023/09/23 11:09:45;;;;;;;2.30;0.70;;;;;;;;;;5103085;28;20512;-83
2023/09/23 11:12:15;;;;;;;0.57;0.50;;;;;;;;;;5105029;28;20417;-84
2023/09/23 11:14:48;;;;;;;1.38;0.80;;;;;;;;;;5105106;28;20374;-84
2023/09/23 11:17:20;;;;;;;2.10;0.70;;;;;;;;;;5104546;28;21240;-82
2023/09/23 11:19:53;;;;;;;2.38;0.90;;;;;;;;;;5104945;28;20382;-82
2023/09/23 11:22:24;;;;;;;1.50;0.52;;;;;;;;;;5085681;28;20397;-82
2023/09/23 11:24:50;;;;;;;1.55;0.80;;;;;;;;;;5086832;28;20412;-82
2023/09/23 11:27:17;;;;;;;1.60;0.60;;;;;;;;;;5106161;28;20382;-84
2023/09/23 11:29:43;;;;;;;2.85;0.80;;;;;;;;;;5105680;28;20445;-82
2023/09/23 11:32:09;;;;;;;1.70;0.80;;;;;;;;;;5104281;28;20393;-82
2023/09/23 11:34:36;;;;;;;1.02;0.60;;;;;;;;;;5085341;28;20378;-82
2023/09/23 11:37:02;;;;;;;1.63;0.60;;;;;;;;;;5084280;28;20405;-83
2023/09/23 11:39:32;;;;;;;1.05;0.65;;;;;;;;;;5085201;28;20374;-83
2023/09/23 11:41:58;;;;;;;0.90;0.57;;;;;;;;;;5103226;28;20424;-83
2023/09/23 11:44:24;;;;;;;1.05;0.70;;;;;;;;;;5084666;28;20386;-83
2023/09/23 11:46:50;;;;;;;0.90;0.60;;;;;;;;;;5108565;28;20421;-83
2023/09/23 11:49:16;;;;;;;0.85;0.50;;;;;;;;;;5113453;28;20522;-83
2023/09/23 11:51:42;;;;;;;1.00;0.50;;;;;;;;;;5088119;28;20382;-83
2023/09/23 11:54:10;;;;;;;0.93;0.60;;;;;;;;;;5106563;28;20418;-83
2023/09/23 11:56:36;;;;;;;1.02;0.63;;;;;;;;;;5106521;28;20378;-83
2023/09/23 11:59:02;;;;;;;2.23;0.70;;;;;;;;;;5088582;28;20409;-84
2023/09/23 12:01:28;;;;;;;1.10;0.70;;;;;;;;;;5105672;28;20398;-83
2023/09/23 12:03:58;;;;;;;0.82;0.60;;;;;;;;;;5087375;28;20412;-84
2023/09/23 12:06:34;;;;;;;1.10;0.77;;;;;;;;;;5106231;28;20390;-86
2023/09/23 12:09:01;;;;;;;1.15;0.60;;;;;;;;;;5104697;28;20512;-84
2023/09/23 12:11:27;;;;;;;1.10;0.80;;;;;;;;;;5086818;28;20461;-85
2023/09/23 12:13:53;;;;;;;2.22;0.80;;;;;;;;;;5087073;28;20385;-83
2023/09/23 12:16:19;;;;;;;1.65;1.27;;;;;;;;;;5087107;28;20439;-83
2023/09/23 12:18:48;;;;;;;1.90;1.10;;;;;;;;;;5104512;28;20386;-85
2023/09/23 12:21:15;;;;;;;1.88;1.00;;;;;;;;;;5104554;28;20477;-83
2023/09/23 12:23:41;;;;;;;1.52;0.90;;;;;;;;;;5104183;28;20373;-83
2023/09/23 12:26:09;;;;;;;3.03;1.00;;;;;;;;;;5104646;28;20397;-82
2023/09/23 12:28:35;;;;;;;1.55;0.80;;;;;;;;;;5105161;28;20429;-85
2023/09/23 12:31:01;;;;;;;1.75;0.60;;;;;;;;;;5103715;28;20416;-82
2023/09/23 12:33:27;;;;;;;1.60;0.57;;;;;;;;;;5085303;28;20386;-82
2023/09/23 12:35:53;;;;;;;0.80;0.47;;;;;;;;;;5085012;28;20432;-83
2023/09/23 12:38:19;;;;;;;0.52;0.40;;;;;;;;;;5085327;28;20391;-83
2023/09/23 12:40:45;;;;;;;0.70;0.50;;;;;;;;;;5083862;28;20393;-83
2023/09/23 12:43:11;;;;;;;0.80;0.50;;;;;;;;;;5084585;28;20387;-83
2023/09/23 12:45:40;;;;;;;0.90;0.40;;;;;;;;;;5086277;28;20417;-83
2023/09/23 12:48:07;;;;;;;0.57;0.40;;;;;;;;;;5102575;28;20847;-83
2023/09/23 12:50:33;;;;;;;1.25;0.40;;;;;;;;;;5084769;28;20452;-83
2023/09/23 12:53:00;;;;;;;0.80;0.38;;;;;;;;;;5101962;28;20390;-83
2023/09/23 12:55:26;;;;;;;0.80;0.40;;;;;;;;;;5102392;28;20385;-83
2023/09/23 12:57:53;;;;;;;0.60;0.45;;;;;;;;;;5084593;28;20771;-83
2023/09/23 13:00:20;;;;;;;0.80;0.50;;;;;;;;;;5084012;28;20793;-84
2023/09/23 13:02:47;;;;;;;0.90;0.40;;;;;;;;;;5084335;28;20412;-83
2023/09/23 13:05:15;;;;;;;1.33;0.50;;;;;;;;;;5084461;28;20477;-83
2023/09/23 13:07:41;;;;;;;0.60;0.43;;;;;;;;;;5103767;28;20379;-83
2023/09/23 13:10:12;;;;;;;0.80;0.40;;;;;;;;;;5083240;28;21302;-82
2023/09/23 13:12:38;;;;;;;0.63;0.40;;;;;;;;;;5101520;28;20782;-83
2023/09/23 13:15:05;;;;;;;0.38;0.32;;;;;;;;;;5101047;28;20451;-82
2023/09/23 13:17:31;;;;;;;0.50;0.40;;;;;;;;;;5099012;28;20715;-82
2023/09/23 13:19:57;;;;;;;0.63;0.55;;;;;;;;;;5099537;28;20381;-82
2023/09/23 13:22:23;;;;;;;0.50;0.50;;;;;;;;;;5102868;28;20449;-82
2023/09/23 13:24:51;;;;;;;0.65;0.40;;;;;;;;;;5102930;28;20385;-82
2023/09/23 13:27:17;;;;;;;0.80;0.40;;;;;;;;;;5103647;28;20393;-82
2023/09/23 13:29:43;;;;;;;0.65;0.50;;;;;;;;;;5104578;28;20482;-82
2023/09/23 13:32:09;;;;;;;0.70;0.55;;;;;;;;;;5103117;28;20481;-82
2023/09/23 13:34:35;;;;;;;0.82;0.57;;;;;;;;;;5103633;28;20401;-82
2023/09/23 13:37:02;;;;;;;0.87;0.67;;;;;;;;;;5115652;28;20821;-82
2023/09/23 13:39:28;;;;;;;0.75;0.63;;;;;;;;;;5105219;28;20385;-82
2023/09/23 13:41:54;;;;;;;0.80;0.50;;;;;;;;;;5103043;28;20481;-82
2023/09/23 13:44:24;;;;;;;0.90;0.50;;;;;;;;;;5101731;28;20385;-82
2023/09/23 13:46:50;;;;;;;1.00;0.68;;;;;;;;;;5101811;28;20428;-82
2023/09/23 13:49:16;;;;;;;0.68;0.60;;;;;;;;;;5101941;28;20420;-82
2023/09/23 13:51:42;;;;;;;0.50;0.40;;;;;;;;;;5103454;28;20451;-82
2023/09/23 13:54:08;;;;;;;1.00;0.50;;;;;;;;;;5102533;28;20390;-82
2023/09/23 13:56:34;;;;;;;2.60;0.68;;;;;;;;;;5103659;28;20394;-82
2023/09/23 13:59:00;;;;;;;0.75;0.60;;;;;;;;;;5102637;28;20382;-82
2023/09/23 14:01:27;;;;;;;0.95;0.52;;;;;;;;;;5101236;28;20404;-82
2023/09/23 14:03:53;;;;;;;1.20;0.50;;;;;;;;;;5106618;28;20386;-83
2023/09/23 14:06:19;;;;;;;0.88;0.50;;;;;;;;;;5104836;28;20451;-84
2023/09/23 14:08:45;;;;;;;1.13;0.70;;;;;;;;;;5106203;28;20394;-82
2023/09/23 14:11:11;;;;;;;1.00;0.70;;;;;;;;;;5096927;28;20409;-82
2023/09/23 14:13:37;;;;;;;2.03;0.87;;;;;;;;;;5089319;28;20398;-82
2023/09/23 14:16:03;;;;;;;1.08;0.70;;;;;;;;;;5095149;28;20436;-83
2023/09/23 14:18:29;;;;;;;0.73;0.57;;;;;;;;;;5096447;28;20780;-83
2023/09/23 14:20:56;;;;;;;1.50;0.80;;;;;;;;;;5098432;28;20393;-83
2023/09/23 14:23:22;;;;;;;1.73;1.13;;;;;;;;;;5088391;28;20418;-83
2023/09/23 14:25:48;;;;;;;1.67;1.40;;;;;;;;;;5090796;28;20439;-82
2023/09/23 14:28:14;;;;;;;2.60;1.52;;;;;;;;;;5095449;28;20392;-82
2023/09/23 14:30:40;;;;;;;1.23;0.70;;;;;;;;;;5092151;28;20425;-82
2023/09/23 14:33:06;;;;;;;1.27;0.90;;;;;;;;;;5095919;28;20386;-82
2023/09/23 14:35:32;;;;;;;1.60;0.90;;;;;;;;;;5103493;28;20383;-82
2023/09/23 14:37:58;;;;;;;1.50;0.90;;;;;;;;;;5104998;28;20408;-82
2023/09/23 14:40:27;;;;;;;1.25;0.82;;;;;;;;;;5095136;28;20397;-82
2023/09/23 14:42:53;;;;;;;1.63;0.90;;;;;;;;;;5077982;28;20396;-82
2023/09/23 14:45:19;;;;;;;1.38;0.85;;;;;;;;;;5075243;28;20960;-82